createdAt,value
2018-05-12T00:00:40.591Z,19.57
2018-05-12T00:03:08.077Z,20.53
2018-05-12T00:05:35.565Z,18.70
2018-05-12T00:08:03.081Z,17.20
2018-05-12T00:10:30.572Z,20.07
2018-05-12T00:12:58.545Z,17.17
2018-05-12T00:15:26.037Z,18.07
2018-05-12T00:17:53.529Z,17.83
2018-05-12T00:20:21.097Z,20.30
2018-05-12T00:22:48.562Z,16.90
2018-05-12T00:25:16.105Z,18.10
2018-05-12T00:27:43.594Z,18.93
2018-05-12T00:30:11.077Z,16.97
2018-05-12T00:32:38.590Z,18.67
2018-05-12T00:35:06.090Z,16.70
2018-05-12T00:37:33.882Z,18.10
2018-05-12T00:40:01.451Z,19.33
2018-05-12T00:42:28.936Z,19.20
2018-05-12T00:44:56.468Z,18.50
2018-05-12T00:47:23.953Z,17.50
2018-05-12T00:49:51.534Z,18.43
2018-05-12T00:52:19.021Z,18.13
2018-05-12T00:54:46.591Z,19.27
2018-05-12T00:57:14.143Z,20.30
2018-05-12T00:59:41.634Z,18.47
2018-05-12T01:02:09.497Z,17.40
2018-05-12T01:04:37.066Z,18.20
2018-05-12T01:07:04.561Z,19.07
2018-05-12T01:09:32.073Z,18.17
2018-05-12T01:11:59.583Z,18.77
2018-05-12T01:14:27.116Z,18.63
2018-05-12T01:16:54.609Z,19.10
2018-05-12T01:19:22.125Z,20.53
2018-05-12T01:21:49.672Z,19.77
2018-05-12T01:24:17.168Z,20.10
2018-05-12T01:26:44.885Z,19.70
2018-05-12T01:29:12.385Z,20.70
2018-05-12T01:31:39.892Z,18.13
2018-05-12T01:34:07.409Z,18.23
2018-05-12T01:36:34.897Z,19.10
2018-05-12T01:39:02.437Z,19.47
2018-05-12T01:41:29.929Z,17.53
2018-05-12T01:43:57.500Z,18.50
2018-05-12T01:46:25.009Z,18.87
2018-05-12T01:48:52.498Z,19.37
2018-05-12T01:51:20.189Z,19.03
2018-05-12T01:53:47.684Z,19.77
2018-05-12T01:56:15.176Z,19.70
2018-05-12T01:58:42.693Z,19.57
2018-05-12T02:01:10.181Z,18.83
2018-05-12T02:03:37.713Z,20.00
2018-05-12T02:06:05.240Z,19.93
2018-05-12T02:08:32.757Z,19.63
2018-05-12T02:11:00.297Z,18.87
2018-05-12T02:13:27.785Z,19.50
2018-05-12T02:15:55.445Z,18.60
2018-05-12T02:18:22.940Z,19.20
2018-05-12T02:20:50.429Z,19.33
2018-05-12T02:23:17.944Z,18.50
2018-05-12T02:25:45.429Z,20.07
2018-05-12T02:28:12.969Z,18.60
2018-05-12T02:30:40.485Z,20.07
2018-05-12T02:33:07.993Z,17.50
2018-05-12T02:35:35.522Z,19.10
2018-05-12T02:38:03.076Z,20.07
2018-05-12T02:40:30.712Z,21.10
2018-05-12T02:42:58.206Z,19.80
2018-05-12T02:45:25.698Z,19.40
2018-05-12T02:47:53.243Z,19.10
2018-05-12T02:50:20.749Z,17.57
2018-05-12T02:52:48.612Z,19.67
2018-05-12T02:55:16.113Z,17.97
2018-05-12T02:57:43.601Z,20.73
2018-05-12T03:00:11.206Z,19.53
2018-05-12T03:02:38.701Z,20.40
2018-05-12T03:05:06.241Z,21.10
2018-05-12T03:07:33.731Z,21.80
2018-05-12T03:10:01.221Z,21.33
2018-05-12T03:12:28.759Z,22.13
2018-05-12T03:14:56.261Z,21.87
2018-05-12T03:17:23.812Z,23.10
2018-05-12T03:19:51.309Z,22.30
2018-05-12T03:22:18.815Z,24.00
2018-05-12T03:24:46.329Z,20.00
2018-05-12T03:27:13.821Z,22.60
2018-05-12T03:29:41.397Z,22.97
2018-05-12T03:32:08.892Z,21.17
2018-05-12T03:34:36.398Z,20.83
2018-05-12T03:37:03.924Z,20.80
2018-05-12T03:39:31.429Z,20.60
2018-05-12T03:41:59.300Z,21.77
2018-05-12T03:44:26.785Z,19.00
2018-05-12T03:46:54.287Z,20.87
2018-05-12T03:49:21.822Z,19.80
2018-05-12T03:51:49.331Z,21.50
2018-05-12T03:54:17.092Z,21.87
2018-05-12T03:56:44.580Z,19.77
2018-05-12T03:59:12.075Z,22.93
2018-05-12T04:01:39.585Z,22.03
2018-05-12T04:04:12.894Z,22.50
2018-05-12T04:06:52.213Z,20.00
2018-05-12T04:12:31.425Z,19.37
2018-05-12T04:14:58.916Z,19.20
2018-05-12T04:17:26.441Z,20.63
2018-05-12T04:19:54.034Z,21.40
2018-05-12T04:22:21.537Z,20.27
2018-05-12T04:24:49.045Z,22.30
2018-05-12T04:27:16.573Z,22.43
2018-05-12T04:29:44.192Z,22.70
2018-05-12T04:32:11.691Z,22.27
2018-05-12T04:34:39.188Z,21.00
2018-05-12T04:37:06.697Z,22.13
2018-05-12T04:39:34.201Z,21.00
2018-05-12T04:42:01.789Z,22.77
2018-05-12T04:44:29.273Z,20.10
2018-05-12T04:46:56.783Z,20.20
2018-05-12T04:49:24.293Z,20.90
2018-05-12T04:51:51.781Z,20.53
2018-05-12T04:54:19.422Z,21.90
2018-05-12T04:56:46.913Z,19.60
2018-05-12T04:59:14.401Z,19.73
2018-05-12T05:01:41.916Z,20.23
2018-05-12T05:04:09.411Z,19.23
2018-05-12T05:06:37.165Z,19.20
2018-05-12T05:09:04.655Z,20.00
2018-05-12T05:11:32.164Z,19.20
2018-05-12T05:13:59.687Z,20.17
2018-05-12T05:16:27.205Z,18.90
2018-05-12T05:18:55.220Z,18.60
2018-05-12T05:21:22.709Z,19.70
2018-05-12T05:23:50.197Z,17.87
2018-05-12T05:26:17.717Z,18.53
2018-05-12T05:28:45.219Z,16.33
2018-05-12T05:31:13.077Z,16.83
2018-05-12T05:33:40.573Z,16.07
2018-05-12T05:36:08.065Z,16.37
2018-05-12T05:38:35.601Z,15.70
2018-05-12T05:41:03.093Z,17.20
2018-05-12T05:43:30.621Z,16.63
2018-05-12T05:45:58.109Z,16.50
2018-05-12T05:48:25.597Z,17.10
2018-05-12T05:50:53.120Z,15.70
2018-05-12T05:53:20.657Z,16.63
2018-05-12T05:55:48.182Z,16.80
2018-05-12T05:58:15.668Z,17.40
2018-05-12T06:00:43.161Z,16.03
2018-05-12T06:03:10.689Z,16.57
2018-05-12T06:05:38.181Z,15.70
2018-05-12T06:08:05.855Z,15.70
2018-05-12T06:10:33.354Z,14.43
2018-05-12T06:13:00.841Z,15.20
2018-05-12T06:15:28.365Z,15.27
2018-05-12T06:17:55.868Z,15.50
2018-05-12T06:20:23.401Z,15.83
2018-05-12T06:22:50.888Z,15.43
2018-05-12T06:25:18.377Z,18.53
2018-05-12T06:27:45.901Z,16.37
2018-05-12T06:30:13.394Z,14.83
2018-05-12T06:32:40.941Z,18.97
2018-05-12T06:35:08.437Z,21.17
2018-05-12T06:37:36.013Z,17.20
2018-05-12T06:40:03.533Z,15.70
2018-05-12T06:42:31.025Z,16.47
2018-05-12T06:44:58.678Z,18.07
2018-05-12T06:47:26.192Z,17.37
2018-05-12T06:49:53.690Z,17.30
2018-05-12T06:52:21.284Z,17.67
2018-05-12T06:54:48.769Z,15.90
2018-05-12T06:57:16.473Z,18.10
2018-05-12T06:59:43.961Z,17.00
2018-05-12T07:02:11.449Z,17.40
2018-05-12T07:04:38.965Z,17.93
2018-05-12T07:07:06.453Z,16.73
2018-05-12T07:09:33.975Z,19.20
2018-05-12T07:12:01.465Z,18.07
2018-05-12T07:14:28.953Z,17.23
2018-05-12T07:16:56.469Z,18.47
2018-05-12T07:19:24.047Z,19.00
2018-05-12T07:21:51.786Z,20.57
2018-05-12T07:24:19.301Z,19.20
2018-05-12T07:26:46.820Z,18.80
2018-05-12T07:29:14.334Z,17.77
2018-05-12T07:31:41.857Z,18.87
2018-05-12T07:34:09.693Z,18.37
2018-05-12T07:36:37.189Z,19.17
2018-05-12T07:39:05.117Z,19.80
2018-05-12T07:41:32.658Z,20.33
2018-05-12T07:44:00.161Z,19.07
2018-05-12T07:46:27.693Z,19.73
2018-05-12T07:48:55.201Z,18.57
2018-05-12T07:51:22.697Z,20.20
2018-05-12T07:53:50.226Z,21.90
2018-05-12T07:56:17.738Z,20.17
2018-05-12T07:58:45.453Z,20.33
2018-05-12T08:01:12.941Z,21.17
2018-05-12T08:03:40.952Z,21.37
2018-05-12T08:06:08.461Z,19.50
2018-05-12T08:08:35.949Z,22.97
2018-05-12T08:11:03.477Z,20.97
2018-05-12T08:13:30.965Z,21.77
2018-05-12T08:15:58.470Z,21.30
2018-05-12T08:18:25.980Z,21.90
2018-05-12T08:20:53.469Z,22.20
2018-05-12T08:23:21.377Z,21.60
2018-05-12T08:25:48.865Z,22.13
2018-05-12T08:28:16.361Z,21.30
2018-05-12T08:30:43.877Z,20.93
2018-05-12T08:33:11.370Z,21.93
2018-05-12T08:35:39.033Z,21.53
2018-05-12T08:38:06.524Z,21.53
2018-05-12T08:40:34.137Z,20.90
2018-05-12T08:43:01.573Z,21.03
2018-05-12T08:45:29.073Z,21.07
2018-05-12T08:47:56.613Z,22.33
2018-05-12T08:50:24.101Z,21.20
2018-05-12T08:52:51.611Z,21.43
2018-05-12T08:55:19.208Z,22.83
2018-05-12T08:57:46.628Z,18.20
2018-05-12T09:00:14.345Z,17.57
2018-05-12T09:02:41.841Z,18.83
2018-05-12T09:05:09.345Z,20.43
2018-05-12T09:07:36.868Z,18.10
2018-05-12T09:10:04.356Z,16.60
2018-05-12T09:12:32.305Z,18.17
2018-05-12T09:14:59.793Z,18.30
2018-05-12T09:17:27.283Z,19.90
2018-05-12T09:19:54.808Z,16.50
2018-05-12T09:22:22.297Z,17.30
2018-05-12T09:24:49.830Z,18.27
2018-05-12T09:27:17.320Z,16.23
2018-05-12T09:29:44.825Z,18.67
2018-05-12T09:32:12.361Z,17.40
2018-05-12T09:34:39.854Z,20.50
2018-05-12T09:37:07.608Z,19.73
2018-05-12T09:39:35.053Z,19.70
2018-05-12T09:42:02.541Z,23.27
2018-05-12T09:44:30.062Z,25.23
2018-05-12T09:46:57.557Z,24.40
2018-05-12T09:49:25.276Z,24.83
2018-05-12T09:51:52.789Z,24.83
2018-05-12T09:54:20.277Z,26.43
2018-05-12T09:56:47.789Z,26.63
2018-05-12T09:59:15.289Z,23.47
2018-05-12T10:01:42.819Z,27.07
2018-05-12T10:04:10.313Z,27.77
2018-05-12T10:06:37.801Z,27.13
2018-05-12T10:09:05.317Z,28.00
2018-05-12T10:11:32.804Z,26.57
2018-05-12T10:14:00.501Z,27.90
2018-05-12T10:16:28.001Z,29.10
2018-05-12T10:18:55.489Z,27.47
2018-05-12T10:21:23.003Z,27.60
2018-05-12T10:23:50.533Z,26.97
2018-05-12T10:26:18.512Z,27.50
2018-05-12T10:28:45.933Z,27.30
2018-05-12T10:31:13.425Z,26.73
2018-05-12T10:33:40.956Z,26.50
2018-05-12T10:36:08.441Z,24.10
2018-05-12T10:38:36.024Z,25.23
2018-05-12T10:41:03.517Z,26.33
2018-05-12T10:43:31.014Z,23.87
2018-05-12T10:45:58.535Z,22.67
2018-05-12T10:48:26.025Z,15.00
2018-05-12T10:50:53.886Z,13.60
2018-05-12T10:53:21.397Z,12.23
2018-05-12T10:55:49.301Z,13.17
2018-05-12T10:58:16.821Z,18.07
2018-05-12T11:00:44.310Z,16.33
2018-05-12T11:03:12.026Z,15.50
2018-05-12T11:05:39.516Z,18.10
2018-05-12T11:08:07.017Z,18.00
2018-05-12T11:10:34.533Z,19.13
2018-05-12T11:13:02.025Z,19.67
2018-05-12T11:15:30.003Z,16.07
2018-05-12T11:17:57.513Z,16.70
2018-05-12T11:20:25.002Z,13.17
2018-05-12T11:22:52.532Z,13.30
2018-05-12T11:25:20.049Z,15.37
2018-05-12T11:27:47.597Z,16.30
2018-05-12T11:30:15.084Z,12.00
2018-05-12T11:32:42.581Z,11.60
2018-05-12T11:35:10.182Z,10.07
2018-05-12T11:37:37.668Z,12.83
2018-05-12T11:40:05.511Z,16.83
2018-05-12T11:42:33.005Z,15.60
2018-05-12T11:45:00.493Z,12.80
2018-05-12T11:47:28.005Z,13.77
2018-05-12T11:49:55.511Z,13.27
2018-05-12T11:52:23.045Z,13.33
2018-05-12T11:54:50.537Z,12.90
2018-05-12T11:57:18.026Z,13.57
2018-05-12T11:59:45.545Z,12.83
2018-05-12T12:02:13.033Z,12.83
2018-05-12T12:04:40.570Z,11.53
2018-05-12T12:07:08.061Z,12.10
2018-05-12T12:09:35.555Z,11.23
2018-05-12T12:12:03.069Z,11.93
2018-05-12T12:14:30.577Z,11.80
2018-05-12T12:16:58.121Z,11.47
2018-05-12T12:19:25.669Z,10.47
2018-05-12T12:21:53.133Z,9.90
2018-05-12T12:24:20.652Z,10.13
2018-05-12T12:26:48.168Z,10.27
2018-05-12T12:29:15.920Z,10.40
2018-05-12T12:31:43.409Z,9.03
2018-05-12T12:34:10.897Z,11.63
2018-05-12T12:36:38.415Z,11.20
2018-05-12T12:39:05.916Z,12.13
2018-05-12T12:41:33.580Z,11.00
2018-05-12T12:44:01.075Z,10.47
2018-05-12T12:46:28.566Z,10.47
2018-05-12T12:48:56.094Z,10.17
2018-05-12T12:51:23.591Z,11.87
2018-05-12T12:53:51.342Z,10.70
2018-05-12T12:56:18.842Z,10.17
2018-05-12T12:58:46.349Z,11.17
2018-05-12T13:01:13.869Z,11.00
2018-05-12T13:03:41.360Z,12.17
2018-05-12T13:06:08.889Z,10.87
2018-05-12T13:08:36.397Z,11.77
2018-05-12T13:11:03.889Z,11.80
2018-05-12T13:13:31.445Z,11.03
2018-05-12T13:15:58.968Z,9.97
2018-05-12T13:18:26.848Z,11.20
2018-05-12T13:20:54.337Z,12.30
2018-05-12T13:23:21.849Z,11.40
2018-05-12T13:25:49.353Z,10.13
2018-05-12T13:28:16.861Z,10.40
2018-05-12T13:30:44.384Z,8.73
2018-05-12T13:33:11.889Z,10.10
2018-05-12T13:35:39.382Z,10.87
2018-05-12T13:38:06.885Z,9.10
2018-05-12T13:40:34.388Z,10.57
2018-05-12T13:43:02.058Z,10.17
2018-05-12T13:45:29.578Z,9.53
2018-05-12T13:47:57.077Z,9.73
2018-05-12T13:50:24.576Z,9.13
2018-05-12T13:52:52.065Z,9.03
2018-05-12T13:55:19.609Z,8.43
2018-05-12T13:57:47.085Z,7.97
2018-05-12T14:00:14.589Z,8.37
2018-05-12T14:02:42.093Z,8.67
2018-05-12T14:05:09.581Z,10.27
2018-05-12T14:07:37.480Z,10.27
2018-05-12T14:10:04.975Z,10.17
2018-05-12T14:12:32.453Z,9.10
2018-05-12T14:14:59.981Z,9.23
2018-05-12T14:17:27.457Z,9.03
2018-05-12T14:19:55.230Z,10.03
2018-05-12T14:22:22.705Z,7.50
2018-05-12T14:24:50.189Z,9.17
2018-05-12T14:27:17.713Z,10.47
2018-05-12T14:29:45.193Z,10.67
2018-05-12T14:32:12.704Z,8.13
2018-05-12T14:34:40.185Z,8.90
2018-05-12T14:37:07.666Z,8.57
2018-05-12T14:39:35.192Z,8.00
2018-05-12T14:42:02.670Z,7.87
2018-05-12T14:44:30.346Z,8.60
2018-05-12T14:46:57.827Z,7.53
2018-05-12T14:49:25.324Z,8.67
2018-05-12T14:51:52.846Z,8.00
2018-05-12T14:54:20.325Z,8.33
2018-05-12T14:56:48.200Z,6.57
2018-05-12T14:59:15.680Z,8.70
2018-05-12T15:01:43.152Z,8.40
2018-05-12T15:04:10.653Z,8.40
2018-05-12T15:06:38.129Z,7.67
2018-05-12T15:09:05.767Z,9.40
2018-05-12T15:11:33.248Z,9.17
2018-05-12T15:14:00.729Z,8.43
2018-05-12T15:16:28.225Z,8.40
2018-05-12T15:18:55.698Z,8.90
2018-05-12T15:21:23.293Z,9.33
2018-05-12T15:23:50.749Z,8.60
2018-05-12T15:26:18.225Z,8.97
2018-05-12T15:28:45.859Z,8.80
2018-05-12T15:31:13.505Z,9.00
2018-05-12T15:33:41.681Z,8.17
2018-05-12T15:36:09.202Z,8.43
2018-05-12T15:38:36.677Z,7.20
2018-05-12T15:41:04.188Z,7.80
2018-05-12T15:43:31.774Z,7.43
2018-05-12T15:45:59.456Z,7.27
2018-05-12T15:48:27.008Z,7.87
2018-05-12T15:50:54.437Z,6.83
2018-05-12T15:53:21.934Z,8.33
2018-05-12T15:55:49.447Z,6.73
2018-05-12T15:58:16.952Z,7.20
2018-05-12T16:00:44.454Z,8.17
2018-05-12T16:03:12.013Z,6.43
2018-05-12T16:05:39.493Z,8.13
2018-05-12T16:08:06.968Z,7.60
2018-05-12T16:10:34.449Z,8.27
2018-05-12T16:13:01.982Z,7.60
2018-05-12T16:15:29.489Z,8.20
2018-05-12T16:17:56.983Z,8.47
2018-05-12T16:20:24.565Z,8.53
2018-05-12T16:22:51.981Z,9.90
2018-05-12T16:25:19.499Z,8.67
2018-05-12T16:27:47.030Z,8.20
2018-05-12T16:30:14.501Z,8.00
2018-05-12T16:32:41.999Z,7.30
2018-05-12T16:35:09.748Z,8.50
2018-05-12T16:37:37.228Z,7.47
2018-05-12T16:40:04.722Z,9.03
2018-05-12T16:42:32.240Z,8.10
2018-05-12T16:44:59.721Z,7.93
2018-05-12T16:47:27.235Z,7.97
2018-05-12T16:49:54.754Z,7.10
2018-05-12T16:52:22.501Z,8.50
2018-05-12T16:54:49.990Z,7.63
2018-05-12T16:57:17.509Z,7.50
2018-05-12T16:59:44.994Z,8.77
2018-05-12T17:02:12.521Z,7.70
2018-05-12T17:04:40.021Z,6.57
2018-05-12T17:07:07.497Z,6.97
2018-05-12T17:09:35.365Z,7.80
2018-05-12T17:12:02.861Z,7.53
2018-05-12T17:14:30.340Z,7.03
2018-05-12T17:16:57.865Z,7.00
2018-05-12T17:19:25.343Z,7.73
2018-05-12T17:21:53.019Z,7.73
2018-05-12T17:24:20.497Z,7.60
2018-05-12T17:26:47.973Z,7.57
2018-05-12T17:29:15.473Z,8.03
2018-05-12T17:31:42.953Z,7.83
2018-05-12T17:34:10.674Z,7.40
2018-05-12T17:36:38.173Z,8.37
2018-05-12T17:39:05.656Z,7.43
2018-05-12T17:41:33.165Z,7.87
2018-05-12T17:44:00.641Z,7.60
2018-05-12T17:46:28.157Z,7.40
2018-05-12T17:48:55.633Z,7.47
2018-05-12T17:51:23.124Z,7.77
2018-05-12T17:53:50.621Z,7.83
2018-05-12T17:56:18.128Z,7.67
2018-05-12T17:58:45.881Z,7.47
2018-05-12T18:01:13.370Z,6.90
2018-05-12T18:03:40.871Z,7.60
2018-05-12T18:06:08.368Z,7.97
2018-05-12T18:08:35.845Z,7.40
2018-05-12T18:11:03.536Z,7.90
2018-05-12T18:13:31.013Z,7.00
2018-05-12T18:15:58.489Z,7.20
2018-05-12T18:18:25.989Z,6.90
2018-05-12T18:20:53.476Z,6.93
2018-05-12T18:23:21.413Z,7.50
2018-05-12T18:25:48.888Z,7.57
2018-05-12T18:28:16.366Z,6.57
2018-05-12T18:30:43.869Z,6.30
2018-05-12T18:33:11.357Z,5.50
2018-05-12T18:35:39.261Z,6.10
2018-05-12T18:38:06.741Z,6.17
2018-05-12T18:40:34.217Z,6.93
2018-05-12T18:43:01.733Z,6.60
2018-05-12T18:45:29.208Z,7.53
2018-05-12T18:47:56.946Z,6.93
2018-05-12T18:50:24.449Z,7.13
2018-05-12T18:52:51.929Z,7.40
2018-05-12T18:55:19.436Z,7.70
2018-05-12T18:57:46.931Z,6.93
2018-05-12T19:00:14.449Z,6.93
2018-05-12T19:02:41.925Z,6.90
2018-05-12T19:05:09.402Z,7.30
2018-05-12T19:07:36.912Z,7.30
2018-05-12T19:10:04.414Z,7.00
2018-05-12T19:12:32.249Z,6.37
2018-05-12T19:14:59.729Z,7.17
2018-05-12T19:17:27.213Z,7.10
2018-05-12T19:19:54.721Z,6.83
2018-05-12T19:22:22.207Z,6.00
2018-05-12T19:24:49.738Z,6.40
2018-05-12T19:27:17.214Z,6.83
2018-05-12T19:29:44.693Z,7.13
2018-05-12T19:32:12.211Z,7.83
2018-05-12T19:34:39.689Z,6.40
2018-05-12T19:37:07.524Z,7.40
2018-05-12T19:39:35.042Z,7.23
2018-05-12T19:42:02.523Z,6.63
2018-05-12T19:44:30.129Z,7.13
2018-05-12T19:46:57.609Z,7.13
2018-05-12T19:49:25.165Z,7.70
2018-05-12T19:51:52.641Z,6.40
2018-05-12T19:54:20.119Z,6.97
2018-05-12T19:56:47.732Z,6.20
2018-05-12T19:59:15.137Z,7.97
2018-05-12T20:01:42.888Z,6.30
2018-05-12T20:04:10.370Z,8.60
2018-05-12T20:06:37.858Z,6.67
2018-05-12T20:09:05.360Z,7.37
2018-05-12T20:11:32.852Z,7.70
2018-05-12T20:14:00.461Z,7.40
2018-05-12T20:16:27.933Z,7.40
2018-05-12T20:18:55.416Z,8.13
2018-05-12T20:21:22.921Z,7.80
2018-05-12T20:23:50.396Z,8.07
2018-05-12T20:26:18.057Z,9.30
2018-05-12T20:28:45.532Z,9.07
2018-05-12T20:31:13.010Z,7.83
2018-05-12T20:33:40.516Z,8.17
2018-05-12T20:36:08.016Z,8.07
2018-05-12T20:38:35.733Z,8.87
2018-05-12T20:41:03.213Z,8.53
2018-05-12T20:43:30.689Z,7.87
2018-05-12T20:45:58.188Z,7.83
2018-05-12T20:48:25.666Z,8.00
2018-05-12T20:50:53.385Z,8.20
2018-05-12T20:53:20.881Z,8.23
2018-05-12T20:55:48.365Z,8.00
2018-05-12T20:58:15.973Z,8.60
2018-05-12T21:00:43.458Z,7.73
2018-05-12T21:03:11.094Z,8.20
2018-05-12T21:05:38.581Z,7.83
2018-05-12T21:08:06.061Z,7.87
2018-05-12T21:10:33.576Z,8.20
2018-05-12T21:13:01.052Z,8.27
2018-05-12T21:15:28.565Z,9.17
2018-05-12T21:17:56.045Z,9.30
2018-05-12T21:20:23.525Z,8.27
2018-05-12T21:22:51.050Z,7.53
2018-05-12T21:25:18.525Z,7.97
2018-05-12T21:27:46.052Z,8.60
2018-05-12T21:30:13.529Z,8.57
2018-05-12T21:32:41.034Z,8.60
2018-05-12T21:35:08.560Z,7.93
2018-05-12T21:37:36.045Z,8.60
2018-05-12T21:40:03.557Z,8.10
2018-05-12T21:42:31.037Z,8.77
2018-05-12T21:44:58.517Z,8.43
2018-05-12T21:47:26.025Z,9.93
2018-05-12T21:49:53.507Z,8.67
2018-05-12T21:52:21.021Z,9.37
2018-05-12T21:54:48.518Z,7.77
2018-05-12T21:57:16.005Z,8.63
2018-05-12T21:59:43.521Z,9.70
2018-05-12T22:02:11.005Z,10.20
2018-05-12T22:04:38.919Z,9.97
2018-05-12T22:07:06.398Z,9.00
2018-05-12T22:09:33.873Z,8.67
2018-05-12T22:12:01.481Z,10.30
2018-05-12T22:14:28.958Z,8.70
2018-05-12T22:16:56.480Z,9.90
2018-05-12T22:19:23.978Z,11.50
2018-05-12T22:21:51.463Z,11.40
2018-05-12T22:24:18.981Z,10.90
2018-05-12T22:26:46.482Z,11.00
2018-05-12T22:29:14.005Z,10.63
2018-05-12T22:31:41.828Z,10.80
2018-05-12T22:34:09.317Z,10.93
2018-05-12T22:36:36.817Z,9.77
2018-05-12T22:39:04.338Z,9.77
2018-05-12T22:41:32.084Z,9.53
2018-05-12T22:43:59.762Z,10.40
2018-05-12T22:46:27.244Z,9.27
2018-05-12T22:48:54.864Z,10.10
2018-05-12T22:51:22.354Z,10.53
2018-05-12T22:53:49.974Z,11.00
2018-05-12T22:56:17.465Z,10.83
2018-05-12T22:58:44.959Z,9.97
2018-05-12T23:01:12.465Z,10.00
2018-05-12T23:03:39.960Z,10.83
2018-05-12T23:06:07.817Z,10.07
2018-05-12T23:08:35.301Z,10.00
2018-05-12T23:11:02.793Z,11.77
2018-05-12T23:13:30.312Z,11.60
2018-05-12T23:15:57.809Z,10.10
2018-05-12T23:18:25.564Z,12.47
2018-05-12T23:20:52.992Z,11.20
2018-05-12T23:23:20.493Z,12.13
2018-05-12T23:25:48.026Z,10.10
2018-05-12T23:28:15.513Z,11.27
2018-05-12T23:30:43.029Z,10.87
2018-05-12T23:33:10.511Z,9.70
2018-05-12T23:35:37.993Z,10.10
2018-05-12T23:38:05.512Z,9.63
2018-05-12T23:40:33.012Z,10.03
2018-05-12T23:43:00.764Z,11.30
2018-05-12T23:45:28.245Z,11.40
2018-05-12T23:47:55.717Z,8.87
2018-05-12T23:50:23.227Z,9.90
2018-05-12T23:52:50.799Z,9.87
2018-05-12T23:55:18.408Z,9.27
2018-05-12T23:57:45.898Z,10.27
